| time (UTC) | temp C | wind direction | speed KPH | gust KPH | rain 1hr cm | rain 24hr cm | rain mn cm | humidity % | barometer mb |
| 20260503224516 | 26 | 0.0 | 1.6 | 0.00 | 0.00 | 0.00 | 38 | 1011.5 | |
| 20260503223516 | 26 | 0.0 | 3.2 | 0.00 | 0.00 | 0.00 | 36 | 1011.7 | |
| 20260503222516 | 26 | 0.0 | 3.2 | 0.00 | 0.00 | 0.00 | 37 | 1011.7 | |
| 20260503221556 | 26 | 0.0 | 3.2 | 0.00 | 0.00 | 0.00 | 40 | 1012.0 | |
| 20260503220521 | 26 | 0.0 | 3.2 | 0.00 | 0.00 | 0.00 | 37 | 1012.0 | |
| 20260503215516 | 26 | 248 | 1.6 | 3.2 | 0.00 | 0.00 | 0.00 | 40 | 1012.0 |
| 20260503214516 | 26 | 270 | 1.6 | 4.8 | 0.00 | 0.00 | 0.00 | 36 | 1012.2 |
| 20260503213516 | 26 | 0.0 | 3.2 | 0.00 | 0.00 | 0.00 | 40 | 1012.3 | |
| 20260503212516 | 26 | 0.0 | 4.8 | 0.00 | 0.00 | 0.00 | 38 | 1012.2 | |
| 20260503211556 | 26 | 248 | 1.6 | 4.8 | 0.00 | 0.00 | 0.00 | 38 | 1012.4 |
| 20260503210516 | 26 | 270 | 1.6 | 12.9 | 0.00 | 0.00 | 0.00 | 39 | 1012.5 |
| 20260503205516 | 26 | 0.0 | 3.2 | 0.00 | 0.00 | 0.00 | 38 | 1012.5 | |
| 20260503204516 | 26 | 0.0 | 3.2 | 0.00 | 0.00 | 0.00 | 41 | 1012.6 | |
| 20260503203516 | 26 | 225 | 1.6 | 6.4 | 0.00 | 0.00 | 0.00 | 39 | 1012.7 |
| 20260503202516 | 26 | 0.0 | 1.6 | 0.00 | 0.00 | 0.00 | 39 | 1012.8 | |
| 20260503201516 | 26 | 0.0 | 3.2 | 0.00 | 0.00 | 0.00 | 41 | 1012.9 | |
| 20260503200518 | 26 | 0.0 | 1.6 | 0.00 | 0.00 | 0.00 | 44 | 1013.0 | |
| 20260503195516 | 25 | 0.0 | 4.8 | 0.00 | 0.00 | 0.00 | 47 | 1013.2 | |
| 20260503194515 | 25 | 0.0 | 3.2 | 0.00 | 0.00 | 0.00 | 45 | 1013.2 | |
| 20260503193516 | 25 | 0.0 | 1.6 | 0.00 | 0.00 | 0.00 | 46 | 1013.3 | |
| 20260503192636 | 24 | 293 | 1.6 | 6.4 | 0.00 | 0.00 | 0.00 | 47 | 1013.4 |
| 20260503191556 | 24 | 0.0 | 1.6 | 0.00 | 0.00 | 0.00 | 46 | 1013.4 | |
| 20260503190516 | 24 | 0.0 | 1.6 | 0.00 | 0.00 | 0.00 | 46 | 1013.5 | |
| 20260503185515 | 24 | 0.0 | 3.2 | 0.00 | 0.00 | 0.00 | 49 | 1013.5 | |
| 20260503184516 | 23 | 0.0 | 1.6 | 0.00 | 0.00 | 0.00 | 54 | 1013.6 | |
| 20260503183516 | 22 | 0.0 | 3.2 | 0.00 | 0.00 | 0.00 | 52 | 1013.7 | |
| 20260503182516 | 22 | 0.0 | 3.2 | 0.00 | 0.00 | 0.00 | 51 | 1013.8 | |
| 20260503181515 | 21 | 315 | 1.6 | 3.2 | 0.00 | 0.00 | 0.00 | 52 | 1013.9 |
| 20260503180516 | 21 | 158 | 1.6 | 9.7 | 0.00 | 0.00 | 0.00 | 52 | 1013.9 |
| 20260503175516 | 21 | 0.0 | 3.2 | 0.00 | 0.00 | 0.00 | 54 | 1013.8 | |
| 20260503174556 | 21 | 23 | 1.6 | 4.8 | 0.00 | 0.00 | 0.00 | 53 | 1013.9 |
| 20260503173516 | 21 | 0.0 | 1.6 | 0.00 | 0.00 | 0.00 | 56 | 1014.0 | |
| 20260503172516 | 20 | 0.0 | 3.2 | 0.00 | 0.00 | 0.00 | 57 | 1014.0 | |
| 20260503171556 | 20 | 315 | 1.6 | 6.4 | 0.00 | 0.00 | 0.00 | 58 | 1014.0 |
| 20260503170515 | 19 | 0.0 | 6.4 | 0.00 | 0.00 | 0.00 | 59 | 1014.0 | |
| 20260503150517 | 15 | 0.0 | 0.0 | 0.00 | 0.00 | 0.00 | 72 | 1014.5 | |
| 20260503130517 | 15 | 0.0 | 1.6 | 0.00 | 0.00 | 0.00 | 71 | 1014.0 | |
| 20260503110517 | 12 | 0.0 | 1.6 | 0.00 | 0.00 | 0.00 | 80 | 1014.4 | |
| 20260503081516 | 14 | 0.0 | 0.0 | 0.00 | 0.00 | 0.00 | 67 | 1014.7 | |
| 20260503080516 | 14 | 0.0 | 0.0 | 0.00 | 0.00 | 0.00 | 68 | 1014.6 | |
| 20260503072516 | 15 | 0.0 | 1.6 | 0.00 | 0.00 | 0.00 | 67 | 1014.5 | |
| 20260503071516 | 15 | 0.0 | 0.0 | 0.00 | 0.00 | 0.00 | 68 | 1014.4 | |
| 20260503070516 | 15 | 0.0 | 0.0 | 0.00 | 0.00 | 0.00 | 67 | 1014.3 | |
| 20260503055017 | 15 | 0.0 | 0.0 | 0.00 | 0.00 | 0.00 | 69 | 1014.1 | |
| 20260503054017 | 15 | 0.0 | 0.0 | 0.00 | 0.00 | 0.00 | 68 | 1014.1 | |
| 20260503053017 | 15 | 0.0 | 0.0 | 0.00 | 0.00 | 0.00 | 69 | 1014.1 | |
| 20260503052057 | 16 | 0.0 | 1.6 | 0.00 | 0.00 | 0.00 | 68 | 1014.1 | |
| 20260503051017 | 16 | 0.0 | 1.6 | 0.00 | 0.00 | 0.00 | 66 | 1014.0 | |
| 20260503050017 | 16 | 0.0 | 0.0 | 0.00 | 0.00 | 0.00 | 62 | 1013.9 | |
| 20260503045017 | 16 | 0.0 | 0.0 | 0.00 | 0.00 | 0.00 | 64 | 1014.0 | |
| 20260503044017 | 16 | 0.0 | 0.0 | 0.00 | 0.00 | 0.00 | 64 | 1014.0 | |
| 20260503043017 | 16 | 0.0 | 1.6 | 0.00 | 0.00 | 0.00 | 65 | 1013.9 | |
| 20260503042017 | 16 | 0.0 | 1.6 | 0.00 | 0.00 | 0.00 | 65 | 1013.8 | |
| 20260503041017 | 16 | 0.0 | 1.6 | 0.00 | 0.00 | 0.00 | 66 | 1013.5 | |
| 20260503040016 | 16 | 0.0 | 0.0 | 0.00 | 0.00 | 0.00 | 65 | 1013.5 | |
| 20260503035017 | 16 | 0.0 | 1.6 | 0.00 | 0.00 | 0.00 | 64 | 1013.4 | |
| 20260503034017 | 17 | 0.0 | 1.6 | 0.00 | 0.00 | 0.00 | 63 | 1013.4 | |
| 20260503033016 | 17 | 0.0 | 1.6 | 0.00 | 0.00 | 0.00 | 61 | 1013.3 | |
| 20260503032137 | 17 | 0.0 | 1.6 | 0.00 | 0.00 | 0.00 | 61 | 1013.3 | |
| 20260503031017 | 17 | 0.0 | 1.6 | 0.00 | 0.00 | 0.00 | 59 | 1013.2 | |
| 20260503030018 | 18 | 0.0 | 1.6 | 0.00 | 0.00 | 0.00 | 59 | 1013.2 | |
| 20260503025017 | 18 | 0.0 | 1.6 | 0.00 | 0.00 | 0.00 | 59 | 1013.0 | |
| 20260503024017 | 18 | 0.0 | 1.6 | 0.00 | 0.00 | 0.00 | 57 | 1013.1 | |
| 20260503023016 | 18 | 0.0 | 0.0 | 0.00 | 0.00 | 0.00 | 56 | 1013.1 | |
| 20260503022017 | 19 | 0.0 | 1.6 | 0.00 | 0.00 | 0.00 | 55 | 1013.2 | |
| 20260503021016 | 19 | 0.0 | 0.0 | 0.00 | 0.00 | 0.00 | 52 | 1013.1 | |
| 20260503020016 | 20 | 0.0 | 0.0 | 0.00 | 0.00 | 0.00 | 51 | 1013.1 | |
| 20260503015017 | 20 | 0.0 | 3.2 | 0.00 | 0.00 | 0.00 | 48 | 1013.1 | |
| 20260503014016 | 20 | 0.0 | 1.6 | 0.00 | 0.00 | 0.00 | 49 | 1013.4 | |
| 20260503013017 | 20 | 0.0 | 3.2 | 0.00 | 0.00 | 0.00 | 47 | 1013.3 | |
| 20260503012016 | 21 | 0.0 | 1.6 | 0.00 | 0.00 | 0.00 | 49 | 1013.3 | |
| 20260503011016 | 21 | 0.0 | 3.2 | 0.00 | 0.00 | 0.00 | 49 | 1013.3 | |
| 20260503010056 | 21 | 0.0 | 3.2 | 0.00 | 0.00 | 0.00 | 48 | 1013.3 | |
| 20260503005016 | 21 | 0.0 | 3.2 | 0.00 | 0.00 | 0.00 | 47 | 1013.4 | |
| 20260503004016 | 21 | 0.0 | 1.6 | 0.00 | 0.00 | 0.00 | 47 | 1013.4 | |
| 20260503003016 | 22 | 0.0 | 1.6 | 0.00 | 0.00 | 0.00 | 47 | 1013.4 | |
| 20260503002036 | 22 | 0.0 | 1.6 | 0.00 | 0.00 | 0.00 | 47 | 1013.5 | |
| 20260503001056 | 22 | 315 | 1.6 | 6.4 | 0.00 | 0.00 | 0.00 | 48 | 1013.5 |
| 20260503000016 | 22 | 0.0 | 1.6 | 0.00 | 0.00 | 0.00 | 48 | 1013.4 | |
| 20260502235016 | 23 | 270 | 1.6 | 4.8 | 0.00 | 0.00 | 0.00 | 49 | 1013.5 |
| 20260502234016 | 23 | 0.0 | 1.6 | 0.00 | 0.00 | 0.00 | 49 | 1013.7 | |
| 20260502233016 | 23 | 0.0 | 3.2 | 0.00 | 0.00 | 0.00 | 50 | 1013.9 | |
| 20260502232016 | 23 | 0.0 | 1.6 | 0.00 | 0.00 | 0.00 | 49 | 1013.9 | |
| 20260502231016 | 23 | 0.0 | 1.6 | 0.00 | 0.00 | 0.00 | 49 | 1014.2 | |
| 20260502230056 | 23 | 0.0 | 1.6 | 0.00 | 0.00 | 0.00 | 53 | 1014.4 |